sensor_id;sensor_type;location;lat;lon;timestamp;P1;durP1;ratioP1;P2;durP2;ratioP2
12597;SDS011;6364;53.590;9.956;2023-02-08T00:01:21;58.90;;;25.17;;
12597;SDS011;6364;53.590;9.956;2023-02-08T00:03:47;51.92;;;25.83;;
12597;SDS011;6364;53.590;9.956;2023-02-08T00:06:13;55.72;;;26.60;;
12597;SDS011;6364;53.590;9.956;2023-02-08T00:08:39;51.92;;;25.90;;
12597;SDS011;6364;53.590;9.956;2023-02-08T00:11:04;55.47;;;27.15;;
12597;SDS011;6364;53.590;9.956;2023-02-08T00:13:31;53.60;;;26.73;;
12597;SDS011;6364;53.590;9.956;2023-02-08T00:15:57;54.63;;;26.55;;
12597;SDS011;6364;53.590;9.956;2023-02-08T00:18:22;49.63;;;24.92;;
12597;SDS011;6364;53.590;9.956;2023-02-08T00:20:48;50.40;;;25.00;;
12597;SDS011;6364;53.590;9.956;2023-02-08T00:23:13;48.28;;;24.70;;
12597;SDS011;6364;53.590;9.956;2023-02-08T00:25:39;54.75;;;25.58;;
12597;SDS011;6364;53.590;9.956;2023-02-08T00:28:05;48.22;;;24.42;;
12597;SDS011;6364;53.590;9.956;2023-02-08T00:30:31;52.70;;;25.52;;
12597;SDS011;6364;53.590;9.956;2023-02-08T00:32:56;49.92;;;25.38;;
12597;SDS011;6364;53.590;9.956;2023-02-08T00:35:22;52.22;;;26.27;;
12597;SDS011;6364;53.590;9.956;2023-02-08T00:37:47;52.33;;;25.23;;
12597;SDS011;6364;53.590;9.956;2023-02-08T00:40:12;51.38;;;23.67;;
12597;SDS011;6364;53.590;9.956;2023-02-08T00:42:38;47.67;;;24.23;;
12597;SDS011;6364;53.590;9.956;2023-02-08T00:45:03;45.22;;;23.88;;
12597;SDS011;6364;53.590;9.956;2023-02-08T00:47:29;46.53;;;24.40;;
12597;SDS011;6364;53.590;9.956;2023-02-08T00:49:54;47.92;;;24.67;;
12597;SDS011;6364;53.590;9.956;2023-02-08T00:52:20;50.42;;;24.63;;
12597;SDS011;6364;53.590;9.956;2023-02-08T00:54:45;46.88;;;22.70;;
12597;SDS011;6364;53.590;9.956;2023-02-08T00:57:11;45.78;;;22.98;;
12597;SDS011;6364;53.590;9.956;2023-02-08T00:59:36;45.22;;;24.02;;
12597;SDS011;6364;53.590;9.956;2023-02-08T01:02:01;47.63;;;22.67;;
12597;SDS011;6364;53.590;9.956;2023-02-08T01:04:27;48.15;;;23.50;;
12597;SDS011;6364;53.590;9.956;2023-02-08T01:06:52;43.42;;;22.60;;
12597;SDS011;6364;53.590;9.956;2023-02-08T01:09:17;41.85;;;22.25;;
12597;SDS011;6364;53.590;9.956;2023-02-08T01:11:43;45.03;;;22.15;;
12597;SDS011;6364;53.590;9.956;2023-02-08T01:14:08;41.03;;;21.65;;
12597;SDS011;6364;53.590;9.956;2023-02-08T01:16:34;43.22;;;21.48;;
12597;SDS011;6364;53.590;9.956;2023-02-08T01:19:01;45.40;;;21.33;;
12597;SDS011;6364;53.590;9.956;2023-02-08T01:21:30;47.33;;;22.52;;
12597;SDS011;6364;53.590;9.956;2023-02-08T01:23:56;41.22;;;20.80;;
12597;SDS011;6364;53.590;9.956;2023-02-08T01:26:22;41.55;;;21.20;;
12597;SDS011;6364;53.590;9.956;2023-02-08T01:28:48;40.55;;;21.02;;
12597;SDS011;6364;53.590;9.956;2023-02-08T01:31:16;36.72;;;20.10;;
12597;SDS011;6364;53.590;9.956;2023-02-08T01:33:42;38.65;;;19.65;;
12597;SDS011;6364;53.590;9.956;2023-02-08T01:36:08;39.22;;;20.80;;
12597;SDS011;6364;53.590;9.956;2023-02-08T01:38:34;38.33;;;20.00;;
12597;SDS011;6364;53.590;9.956;2023-02-08T01:41:00;39.67;;;21.80;;
12597;SDS011;6364;53.590;9.956;2023-02-08T01:43:34;43.55;;;21.60;;
12597;SDS011;6364;53.590;9.956;2023-02-08T01:46:20;44.53;;;21.20;;
12597;SDS011;6364;53.590;9.956;2023-02-08T01:48:46;40.28;;;20.90;;
12597;SDS011;6364;53.590;9.956;2023-02-08T01:51:13;42.03;;;21.63;;
12597;SDS011;6364;53.590;9.956;2023-02-08T01:53:41;42.58;;;23.45;;
12597;SDS011;6364;53.590;9.956;2023-02-08T01:56:07;38.60;;;21.20;;
12597;SDS011;6364;53.590;9.956;2023-02-08T01:58:36;41.10;;;23.15;;
12597;SDS011;6364;53.590;9.956;2023-02-08T02:01:05;47.72;;;22.48;;
12597;SDS011;6364;53.590;9.956;2023-02-08T02:03:31;40.75;;;21.58;;
12597;SDS011;6364;53.590;9.956;2023-02-08T02:06:02;46.20;;;23.15;;
12597;SDS011;6364;53.590;9.956;2023-02-08T02:08:32;43.60;;;23.10;;
12597;SDS011;6364;53.590;9.956;2023-02-08T02:10:57;51.03;;;24.08;;
12597;SDS011;6364;53.590;9.956;2023-02-08T02:13:23;49.08;;;23.65;;
12597;SDS011;6364;53.590;9.956;2023-02-08T02:15:50;51.78;;;24.40;;
12597;SDS011;6364;53.590;9.956;2023-02-08T02:18:21;50.85;;;25.08;;
12597;SDS011;6364;53.590;9.956;2023-02-08T02:24:10;46.17;;;23.90;;
12597;SDS011;6364;53.590;9.956;2023-02-08T02:27:02;45.83;;;24.10;;
12597;SDS011;6364;53.590;9.956;2023-02-08T02:32:02;47.00;;;24.75;;
12597;SDS011;6364;53.590;9.956;2023-02-08T02:35:04;50.33;;;24.27;;
12597;SDS011;6364;53.590;9.956;2023-02-08T02:40:25;53.17;;;25.40;;
12597;SDS011;6364;53.590;9.956;2023-02-08T02:51:42;53.90;;;25.13;;
12597;SDS011;6364;53.590;9.956;2023-02-08T02:56:42;48.00;;;24.10;;
12597;SDS011;6364;53.590;9.956;2023-02-08T02:59:09;49.95;;;24.00;;
12597;SDS011;6364;53.590;9.956;2023-02-08T03:01:35;53.30;;;24.85;;
12597;SDS011;6364;53.590;9.956;2023-02-08T03:12:47;46.45;;;24.15;;
12597;SDS011;6364;53.590;9.956;2023-02-08T03:15:38;48.35;;;23.92;;
12597;SDS011;6364;53.590;9.956;2023-02-08T03:32:29;50.80;;;24.50;;
12597;SDS011;6364;53.590;9.956;2023-02-08T03:35:07;49.63;;;24.85;;
12597;SDS011;6364;53.590;9.956;2023-02-08T03:40:08;50.92;;;24.58;;
12597;SDS011;6364;53.590;9.956;2023-02-08T03:42:36;52.97;;;24.75;;
12597;SDS011;6364;53.590;9.956;2023-02-08T03:45:22;54.25;;;24.85;;
12597;SDS011;6364;53.590;9.956;2023-02-08T03:47:51;54.72;;;24.85;;
12597;SDS011;6364;53.590;9.956;2023-02-08T03:50:17;54.95;;;25.75;;
12597;SDS011;6364;53.590;9.956;2023-02-08T03:52:47;53.38;;;25.63;;
12597;SDS011;6364;53.590;9.956;2023-02-08T03:55:17;53.78;;;24.80;;
12597;SDS011;6364;53.590;9.956;2023-02-08T03:57:51;50.92;;;25.23;;
12597;SDS011;6364;53.590;9.956;2023-02-08T04:00:19;53.72;;;25.02;;
12597;SDS011;6364;53.590;9.956;2023-02-08T04:02:56;52.72;;;24.48;;
12597;SDS011;6364;53.590;9.956;2023-02-08T04:05:25;56.67;;;26.45;;
12597;SDS011;6364;53.590;9.956;2023-02-08T04:07:50;59.72;;;26.40;;
12597;SDS011;6364;53.590;9.956;2023-02-08T04:10:16;49.15;;;25.23;;
12597;SDS011;6364;53.590;9.956;2023-02-08T04:12:42;51.42;;;25.38;;
12597;SDS011;6364;53.590;9.956;2023-02-08T04:15:07;51.58;;;25.50;;
12597;SDS011;6364;53.590;9.956;2023-02-08T04:17:33;50.97;;;25.00;;
12597;SDS011;6364;53.590;9.956;2023-02-08T04:19:58;51.88;;;25.15;;
12597;SDS011;6364;53.590;9.956;2023-02-08T04:22:24;48.22;;;24.17;;
12597;SDS011;6364;53.590;9.956;2023-02-08T04:24:49;53.35;;;25.75;;
12597;SDS011;6364;53.590;9.956;2023-02-08T04:27:15;53.30;;;25.33;;
12597;SDS011;6364;53.590;9.956;2023-02-08T04:29:40;55.00;;;25.75;;
12597;SDS011;6364;53.590;9.956;2023-02-08T04:32:05;52.88;;;25.75;;
12597;SDS011;6364;53.590;9.956;2023-02-08T04:34:35;51.03;;;25.02;;
12597;SDS011;6364;53.590;9.956;2023-02-08T04:37:01;54.80;;;26.33;;
12597;SDS011;6364;53.590;9.956;2023-02-08T04:39:26;49.95;;;25.65;;
12597;SDS011;6364;53.590;9.956;2023-02-08T04:41:51;53.50;;;24.90;;
12597;SDS011;6364;53.590;9.956;2023-02-08T04:44:17;53.47;;;25.70;;
12597;SDS011;6364;53.590;9.956;2023-02-08T04:46:42;52.15;;;25.00;;
12597;SDS011;6364;53.590;9.956;2023-02-08T04:49:07;54.03;;;25.23;;
12597;SDS011;6364;53.590;9.956;2023-02-08T04:51:33;57.00;;;25.40;;
12597;SDS011;6364;53.590;9.956;2023-02-08T04:53:58;58.35;;;26.45;;
12597;SDS011;6364;53.590;9.956;2023-02-08T04:56:23;64.57;;;26.98;;
12597;SDS011;6364;53.590;9.956;2023-02-08T04:58:49;66.70;;;28.33;;
12597;SDS011;6364;53.590;9.956;2023-02-08T05:01:14;52.55;;;25.80;;
12597;SDS011;6364;53.590;9.956;2023-02-08T05:03:40;66.55;;;29.08;;
12597;SDS011;6364;53.590;9.956;2023-02-08T05:06:05;58.28;;;26.27;;
12597;SDS011;6364;53.590;9.956;2023-02-08T05:08:31;66.43;;;27.70;;
12597;SDS011;6364;53.590;9.956;2023-02-08T05:10:56;56.53;;;27.58;;
12597;SDS011;6364;53.590;9.956;2023-02-08T05:13:21;60.15;;;29.27;;
12597;SDS011;6364;53.590;9.956;2023-02-08T05:15:47;68.45;;;29.02;;
12597;SDS011;6364;53.590;9.956;2023-02-08T05:18:12;63.90;;;29.63;;
12597;SDS011;6364;53.590;9.956;2023-02-08T05:20:37;68.28;;;29.48;;
12597;SDS011;6364;53.590;9.956;2023-02-08T05:23:03;66.18;;;29.90;;
12597;SDS011;6364;53.590;9.956;2023-02-08T05:25:29;67.97;;;29.52;;
12597;SDS011;6364;53.590;9.956;2023-02-08T05:27:55;68.97;;;30.10;;
12597;SDS011;6364;53.590;9.956;2023-02-08T05:30:20;70.53;;;29.30;;
12597;SDS011;6364;53.590;9.956;2023-02-08T05:32:45;64.57;;;28.80;;
12597;SDS011;6364;53.590;9.956;2023-02-08T05:35:11;67.35;;;30.55;;
12597;SDS011;6364;53.590;9.956;2023-02-08T05:37:36;64.60;;;30.00;;
12597;SDS011;6364;53.590;9.956;2023-02-08T05:40:02;68.75;;;30.42;;
12597;SDS011;6364;53.590;9.956;2023-02-08T05:42:27;66.30;;;28.85;;
12597;SDS011;6364;53.590;9.956;2023-02-08T05:44:52;69.53;;;30.45;;
12597;SDS011;6364;53.590;9.956;2023-02-08T05:47:18;65.63;;;29.55;;
12597;SDS011;6364;53.590;9.956;2023-02-08T05:49:43;71.68;;;31.77;;
12597;SDS011;6364;53.590;9.956;2023-02-08T05:52:08;74.60;;;32.67;;
12597;SDS011;6364;53.590;9.956;2023-02-08T05:54:34;66.13;;;30.38;;
12597;SDS011;6364;53.590;9.956;2023-02-08T05:56:59;68.90;;;30.52;;
12597;SDS011;6364;53.590;9.956;2023-02-08T05:59:24;73.38;;;32.17;;
12597;SDS011;6364;53.590;9.956;2023-02-08T06:01:50;73.68;;;31.35;;
12597;SDS011;6364;53.590;9.956;2023-02-08T06:04:15;64.80;;;29.73;;
12597;SDS011;6364;53.590;9.956;2023-02-08T06:06:40;68.03;;;30.50;;
12597;SDS011;6364;53.590;9.956;2023-02-08T06:09:05;71.32;;;32.20;;
12597;SDS011;6364;53.590;9.956;2023-02-08T06:11:31;69.22;;;31.60;;
12597;SDS011;6364;53.590;9.956;2023-02-08T06:13:56;72.75;;;30.05;;
12597;SDS011;6364;53.590;9.956;2023-02-08T06:16:21;64.95;;;30.58;;
12597;SDS011;6364;53.590;9.956;2023-02-08T06:18:47;74.85;;;31.27;;
12597;SDS011;6364;53.590;9.956;2023-02-08T06:21:12;66.18;;;29.73;;
12597;SDS011;6364;53.590;9.956;2023-02-08T06:23:37;73.03;;;31.33;;
12597;SDS011;6364;53.590;9.956;2023-02-08T06:26:03;73.05;;;29.58;;
12597;SDS011;6364;53.590;9.956;2023-02-08T06:28:28;70.82;;;31.05;;
12597;SDS011;6364;53.590;9.956;2023-02-08T06:30:53;73.13;;;29.33;;
12597;SDS011;6364;53.590;9.956;2023-02-08T06:33:19;75.78;;;30.60;;
12597;SDS011;6364;53.590;9.956;2023-02-08T06:35:44;72.80;;;30.48;;
12597;SDS011;6364;53.590;9.956;2023-02-08T06:38:10;71.57;;;29.83;;
12597;SDS011;6364;53.590;9.956;2023-02-08T06:40:36;72.93;;;31.88;;
12597;SDS011;6364;53.590;9.956;2023-02-08T06:43:01;75.88;;;32.03;;
12597;SDS011;6364;53.590;9.956;2023-02-08T06:45:26;72.82;;;30.70;;
12597;SDS011;6364;53.590;9.956;2023-02-08T06:47:52;82.07;;;32.10;;
12597;SDS011;6364;53.590;9.956;2023-02-08T06:50:17;68.65;;;29.75;;
12597;SDS011;6364;53.590;9.956;2023-02-08T06:52:42;79.10;;;31.95;;
12597;SDS011;6364;53.590;9.956;2023-02-08T06:55:08;80.85;;;33.78;;
12597;SDS011;6364;53.590;9.956;2023-02-08T06:57:33;79.07;;;31.90;;
12597;SDS011;6364;53.590;9.956;2023-02-08T06:59:58;76.50;;;31.80;;
12597;SDS011;6364;53.590;9.956;2023-02-08T07:02:23;68.13;;;30.73;;
12597;SDS011;6364;53.590;9.956;2023-02-08T07:04:49;73.55;;;33.05;;
12597;SDS011;6364;53.590;9.956;2023-02-08T07:07:15;66.50;;;29.83;;
12597;SDS011;6364;53.590;9.956;2023-02-08T07:09:42;71.40;;;31.27;;
12597;SDS011;6364;53.590;9.956;2023-02-08T07:12:07;72.45;;;30.67;;
12597;SDS011;6364;53.590;9.956;2023-02-08T07:14:34;68.35;;;30.55;;
12597;SDS011;6364;53.590;9.956;2023-02-08T07:17:01;70.60;;;29.88;;
12597;SDS011;6364;53.590;9.956;2023-02-08T07:19:27;79.40;;;31.55;;
12597;SDS011;6364;53.590;9.956;2023-02-08T07:21:52;72.05;;;31.70;;
12597;SDS011;6364;53.590;9.956;2023-02-08T07:24:18;75.97;;;31.17;;
12597;SDS011;6364;53.590;9.956;2023-02-08T07:26:43;75.78;;;31.83;;
12597;SDS011;6364;53.590;9.956;2023-02-08T07:29:09;79.63;;;30.75;;
12597;SDS011;6364;53.590;9.956;2023-02-08T07:31:34;65.05;;;30.23;;
12597;SDS011;6364;53.590;9.956;2023-02-08T07:33:59;78.97;;;32.63;;
12597;SDS011;6364;53.590;9.956;2023-02-08T07:36:25;70.65;;;30.10;;
12597;SDS011;6364;53.590;9.956;2023-02-08T07:38:50;69.80;;;30.00;;
12597;SDS011;6364;53.590;9.956;2023-02-08T07:41:15;70.15;;;29.90;;
12597;SDS011;6364;53.590;9.956;2023-02-08T07:43:41;73.28;;;31.05;;
12597;SDS011;6364;53.590;9.956;2023-02-08T07:48:33;68.18;;;28.70;;
12597;SDS011;6364;53.590;9.956;2023-02-08T07:50:58;69.88;;;30.73;;
12597;SDS011;6364;53.590;9.956;2023-02-08T07:53:23;76.35;;;30.67;;
12597;SDS011;6364;53.590;9.956;2023-02-08T07:55:49;77.00;;;31.02;;
12597;SDS011;6364;53.590;9.956;2023-02-08T07:58:14;73.80;;;30.92;;
12597;SDS011;6364;53.590;9.956;2023-02-08T08:00:40;68.13;;;28.90;;
12597;SDS011;6364;53.590;9.956;2023-02-08T08:03:05;68.05;;;27.92;;
12597;SDS011;6364;53.590;9.956;2023-02-08T08:05:30;69.57;;;29.13;;
12597;SDS011;6364;53.590;9.956;2023-02-08T08:07:56;67.25;;;29.23;;
12597;SDS011;6364;53.590;9.956;2023-02-08T08:10:21;66.93;;;28.90;;
12597;SDS011;6364;53.590;9.956;2023-02-08T08:12:46;67.32;;;29.35;;
12597;SDS011;6364;53.590;9.956;2023-02-08T08:15:12;69.38;;;31.08;;
12597;SDS011;6364;53.590;9.956;2023-02-08T08:17:37;64.90;;;29.02;;
12597;SDS011;6364;53.590;9.956;2023-02-08T08:20:06;69.05;;;29.15;;
12597;SDS011;6364;53.590;9.956;2023-02-08T08:22:32;74.88;;;30.92;;
12597;SDS011;6364;53.590;9.956;2023-02-08T08:24:57;65.03;;;28.35;;
12597;SDS011;6364;53.590;9.956;2023-02-08T08:27:23;66.13;;;29.48;;
12597;SDS011;6364;53.590;9.956;2023-02-08T08:29:49;64.47;;;27.85;;
12597;SDS011;6364;53.590;9.956;2023-02-08T08:32:14;64.72;;;28.52;;
12597;SDS011;6364;53.590;9.956;2023-02-08T08:34:39;75.20;;;30.35;;
12597;SDS011;6364;53.590;9.956;2023-02-08T08:37:05;61.97;;;27.17;;
12597;SDS011;6364;53.590;9.956;2023-02-08T08:39:30;65.10;;;27.15;;
12597;SDS011;6364;53.590;9.956;2023-02-08T08:41:56;67.70;;;29.15;;
12597;SDS011;6364;53.590;9.956;2023-02-08T08:44:24;65.95;;;27.05;;
12597;SDS011;6364;53.590;9.956;2023-02-08T08:46:52;63.28;;;27.58;;
12597;SDS011;6364;53.590;9.956;2023-02-08T08:49:19;65.30;;;28.27;;
12597;SDS011;6364;53.590;9.956;2023-02-08T08:51:44;71.88;;;28.92;;
12597;SDS011;6364;53.590;9.956;2023-02-08T08:54:10;59.75;;;28.23;;
12597;SDS011;6364;53.590;9.956;2023-02-08T08:56:35;65.50;;;28.05;;
12597;SDS011;6364;53.590;9.956;2023-02-08T08:59:00;59.88;;;27.60;;
12597;SDS011;6364;53.590;9.956;2023-02-08T09:01:26;58.05;;;27.25;;
12597;SDS011;6364;53.590;9.956;2023-02-08T09:03:51;59.03;;;27.00;;
12597;SDS011;6364;53.590;9.956;2023-02-08T09:06:16;64.45;;;29.17;;
12597;SDS011;6364;53.590;9.956;2023-02-08T09:08:42;62.17;;;26.40;;
12597;SDS011;6364;53.590;9.956;2023-02-08T09:11:09;64.70;;;28.73;;
12597;SDS011;6364;53.590;9.956;2023-02-08T09:13:36;63.72;;;26.60;;
12597;SDS011;6364;53.590;9.956;2023-02-08T09:16:05;54.65;;;26.77;;
12597;SDS011;6364;53.590;9.956;2023-02-08T09:18:35;60.78;;;26.42;;
12597;SDS011;6364;53.590;9.956;2023-02-08T09:21:04;61.53;;;27.23;;
12597;SDS011;6364;53.590;9.956;2023-02-08T09:23:40;63.03;;;26.90;;
12597;SDS011;6364;53.590;9.956;2023-02-08T09:26:08;61.55;;;26.25;;
12597;SDS011;6364;53.590;9.956;2023-02-08T09:28:39;61.08;;;27.20;;
12597;SDS011;6364;53.590;9.956;2023-02-08T09:31:11;67.32;;;26.80;;
12597;SDS011;6364;53.590;9.956;2023-02-08T09:33:45;56.10;;;25.73;;
12597;SDS011;6364;53.590;9.956;2023-02-08T09:36:11;64.70;;;27.10;;
12597;SDS011;6364;53.590;9.956;2023-02-08T09:38:37;54.65;;;25.20;;
12597;SDS011;6364;53.590;9.956;2023-02-08T09:43:45;62.40;;;26.35;;
12597;SDS011;6364;53.590;9.956;2023-02-08T09:48:50;53.13;;;24.75;;
12597;SDS011;6364;53.590;9.956;2023-02-08T09:51:31;55.25;;;24.48;;
12597;SDS011;6364;53.590;9.956;2023-02-08T09:56:34;53.83;;;24.80;;
12597;SDS011;6364;53.590;9.956;2023-02-08T09:59:01;48.58;;;24.08;;
12597;SDS011;6364;53.590;9.956;2023-02-08T10:01:27;50.80;;;25.10;;
12597;SDS011;6364;53.590;9.956;2023-02-08T10:06:51;56.50;;;24.98;;
12597;SDS011;6364;53.590;9.956;2023-02-08T10:09:17;53.97;;;24.67;;
12597;SDS011;6364;53.590;9.956;2023-02-08T10:28:06;48.30;;;25.67;;
12597;SDS011;6364;53.590;9.956;2023-02-08T10:30:48;51.55;;;25.98;;
12597;SDS011;6364;53.590;9.956;2023-02-08T10:33:26;53.42;;;26.58;;
12597;SDS011;6364;53.590;9.956;2023-02-08T10:36:11;47.65;;;25.15;;
12597;SDS011;6364;53.590;9.956;2023-02-08T10:38:38;53.53;;;27.23;;
12597;SDS011;6364;53.590;9.956;2023-02-08T10:41:04;49.28;;;26.95;;
12597;SDS011;6364;53.590;9.956;2023-02-08T10:46:19;46.67;;;26.33;;
12597;SDS011;6364;53.590;9.956;2023-02-08T10:51:38;54.17;;;26.75;;
12597;SDS011;6364;53.590;9.956;2023-02-08T10:54:03;51.00;;;27.02;;
12597;SDS011;6364;53.590;9.956;2023-02-08T10:58:54;49.00;;;26.65;;
12597;SDS011;6364;53.590;9.956;2023-02-08T11:01:20;48.00;;;26.17;;
12597;SDS011;6364;53.590;9.956;2023-02-08T11:04:05;47.85;;;25.80;;
12597;SDS011;6364;53.590;9.956;2023-02-08T11:06:34;47.08;;;24.55;;
12597;SDS011;6364;53.590;9.956;2023-02-08T11:08:59;49.25;;;26.55;;
12597;SDS011;6364;53.590;9.956;2023-02-08T11:11:24;51.63;;;26.65;;
12597;SDS011;6364;53.590;9.956;2023-02-08T11:13:54;48.55;;;26.52;;
12597;SDS011;6364;53.590;9.956;2023-02-08T11:16:30;49.90;;;26.17;;
12597;SDS011;6364;53.590;9.956;2023-02-08T11:18:55;46.75;;;26.05;;
12597;SDS011;6364;53.590;9.956;2023-02-08T11:21:26;48.95;;;26.05;;
12597;SDS011;6364;53.590;9.956;2023-02-08T11:23:57;49.00;;;25.95;;
12597;SDS011;6364;53.590;9.956;2023-02-08T11:26:46;48.38;;;27.95;;
12597;SDS011;6364;53.590;9.956;2023-02-08T11:34:27;48.17;;;25.10;;
12597;SDS011;6364;53.590;9.956;2023-02-08T11:37:01;47.13;;;25.67;;
12597;SDS011;6364;53.590;9.956;2023-02-08T11:39:29;52.20;;;25.95;;
12597;SDS011;6364;53.590;9.956;2023-02-08T11:42:02;45.47;;;25.13;;
12597;SDS011;6364;53.590;9.956;2023-02-08T11:44:30;47.88;;;25.83;;
12597;SDS011;6364;53.590;9.956;2023-02-08T11:47:07;49.53;;;25.48;;
12597;SDS011;6364;53.590;9.956;2023-02-08T11:49:38;44.10;;;24.83;;
12597;SDS011;6364;53.590;9.956;2023-02-08T11:52:05;51.03;;;25.90;;
12597;SDS011;6364;53.590;9.956;2023-02-08T11:55:10;50.13;;;25.35;;
12597;SDS011;6364;53.590;9.956;2023-02-08T11:57:37;47.05;;;23.52;;
12597;SDS011;6364;53.590;9.956;2023-02-08T12:00:22;47.78;;;24.10;;
12597;SDS011;6364;53.590;9.956;2023-02-08T12:02:50;49.10;;;24.77;;
12597;SDS011;6364;53.590;9.956;2023-02-08T12:05:16;43.55;;;25.33;;
12597;SDS011;6364;53.590;9.956;2023-02-08T12:07:55;47.05;;;23.42;;
12597;SDS011;6364;53.590;9.956;2023-02-08T12:18:37;46.83;;;24.45;;
12597;SDS011;6364;53.590;9.956;2023-02-08T12:21:17;42.50;;;23.08;;
12597;SDS011;6364;53.590;9.956;2023-02-08T12:27:10;39.10;;;21.70;;
12597;SDS011;6364;53.590;9.956;2023-02-08T12:29:48;41.88;;;22.50;;
12597;SDS011;6364;53.590;9.956;2023-02-08T12:32:32;43.67;;;24.08;;
12597;SDS011;6364;53.590;9.956;2023-02-08T12:35:03;42.38;;;22.60;;
12597;SDS011;6364;53.590;9.956;2023-02-08T12:40:33;41.22;;;20.75;;
12597;SDS011;6364;53.590;9.956;2023-02-08T12:55:04;38.97;;;20.08;;
12597;SDS011;6364;53.590;9.956;2023-02-08T12:57:33;39.85;;;20.13;;
12597;SDS011;6364;53.590;9.956;2023-02-08T13:00:03;37.15;;;21.48;;
12597;SDS011;6364;53.590;9.956;2023-02-08T13:02:33;39.38;;;20.60;;
12597;SDS011;6364;53.590;9.956;2023-02-08T13:05:10;40.00;;;21.35;;
12597;SDS011;6364;53.590;9.956;2023-02-08T13:07:39;38.45;;;20.58;;
12597;SDS011;6364;53.590;9.956;2023-02-08T13:12:57;36.35;;;20.02;;
12597;SDS011;6364;53.590;9.956;2023-02-08T13:15:38;39.95;;;20.70;;
12597;SDS011;6364;53.590;9.956;2023-02-08T13:18:16;36.60;;;20.17;;
12597;SDS011;6364;53.590;9.956;2023-02-08T13:20:44;37.80;;;20.33;;
12597;SDS011;6364;53.590;9.956;2023-02-08T13:23:35;37.00;;;19.30;;
12597;SDS011;6364;53.590;9.956;2023-02-08T13:26:01;38.40;;;20.02;;
12597;SDS011;6364;53.590;9.956;2023-02-08T13:28:30;36.38;;;18.65;;
12597;SDS011;6364;53.590;9.956;2023-02-08T13:30:57;41.85;;;18.67;;
12597;SDS011;6364;53.590;9.956;2023-02-08T13:33:33;36.15;;;18.83;;
12597;SDS011;6364;53.590;9.956;2023-02-08T13:36:02;34.53;;;17.63;;
12597;SDS011;6364;53.590;9.956;2023-02-08T13:38:28;36.67;;;17.48;;
12597;SDS011;6364;53.590;9.956;2023-02-08T13:41:02;39.33;;;17.17;;
12597;SDS011;6364;53.590;9.956;2023-02-08T13:43:35;33.97;;;16.70;;
12597;SDS011;6364;53.590;9.956;2023-02-08T13:46:03;35.58;;;15.68;;
12597;SDS011;6364;53.590;9.956;2023-02-08T13:48:39;32.15;;;15.52;;
12597;SDS011;6364;53.590;9.956;2023-02-08T13:51:08;32.92;;;16.38;;
12597;SDS011;6364;53.590;9.956;2023-02-08T14:04:46;30.95;;;14.82;;
12597;SDS011;6364;53.590;9.956;2023-02-08T14:07:14;32.53;;;14.35;;
12597;SDS011;6364;53.590;9.956;2023-02-08T14:17:40;23.83;;;11.82;;
12597;SDS011;6364;53.590;9.956;2023-02-08T14:20:06;26.88;;;13.43;;
12597;SDS011;6364;53.590;9.956;2023-02-08T14:22:34;29.33;;;13.82;;
12597;SDS011;6364;53.590;9.956;2023-02-08T14:25:05;26.60;;;12.43;;
12597;SDS011;6364;53.590;9.956;2023-02-08T14:27:48;27.70;;;11.82;;
12597;SDS011;6364;53.590;9.956;2023-02-08T14:32:51;25.40;;;12.68;;
12597;SDS011;6364;53.590;9.956;2023-02-08T14:35:19;26.52;;;12.05;;
12597;SDS011;6364;53.590;9.956;2023-02-08T14:37:46;26.48;;;12.10;;
12597;SDS011;6364;53.590;9.956;2023-02-08T14:42:58;27.25;;;11.10;;
12597;SDS011;6364;53.590;9.956;2023-02-08T14:45:43;27.23;;;11.48;;
12597;SDS011;6364;53.590;9.956;2023-02-08T14:48:17;20.52;;;10.77;;
12597;SDS011;6364;53.590;9.956;2023-02-08T14:58:34;25.92;;;12.10;;
12597;SDS011;6364;53.590;9.956;2023-02-08T15:01:03;29.13;;;11.48;;
12597;SDS011;6364;53.590;9.956;2023-02-08T15:03:32;33.70;;;13.23;;
12597;SDS011;6364;53.590;9.956;2023-02-08T15:06:01;25.83;;;11.70;;
12597;SDS011;6364;53.590;9.956;2023-02-08T15:08:33;27.70;;;12.57;;
12597;SDS011;6364;53.590;9.956;2023-02-08T15:10:58;29.13;;;11.90;;
12597;SDS011;6364;53.590;9.956;2023-02-08T15:13:24;29.88;;;12.65;;
12597;SDS011;6364;53.590;9.956;2023-02-08T15:15:53;30.80;;;13.15;;
12597;SDS011;6364;53.590;9.956;2023-02-08T15:18:24;26.05;;;12.98;;
12597;SDS011;6364;53.590;9.956;2023-02-08T15:20:58;31.93;;;13.90;;
12597;SDS011;6364;53.590;9.956;2023-02-08T15:23:25;30.57;;;13.63;;
12597;SDS011;6364;53.590;9.956;2023-02-08T15:26:01;35.50;;;13.73;;
12597;SDS011;6364;53.590;9.956;2023-02-08T15:28:27;30.70;;;14.75;;
12597;SDS011;6364;53.590;9.956;2023-02-08T15:30:58;29.38;;;14.15;;
12597;SDS011;6364;53.590;9.956;2023-02-08T15:33:28;31.75;;;13.10;;
12597;SDS011;6364;53.590;9.956;2023-02-08T15:35:56;29.00;;;14.18;;
12597;SDS011;6364;53.590;9.956;2023-02-08T15:38:26;29.90;;;15.00;;
12597;SDS011;6364;53.590;9.956;2023-02-08T15:41:02;32.13;;;15.15;;
12597;SDS011;6364;53.590;9.956;2023-02-08T15:43:33;31.73;;;14.95;;
12597;SDS011;6364;53.590;9.956;2023-02-08T15:46:00;35.28;;;15.38;;
12597;SDS011;6364;53.590;9.956;2023-02-08T15:48:27;35.08;;;15.13;;
12597;SDS011;6364;53.590;9.956;2023-02-08T15:50:53;31.83;;;15.50;;
12597;SDS011;6364;53.590;9.956;2023-02-08T15:53:20;33.47;;;15.60;;
12597;SDS011;6364;53.590;9.956;2023-02-08T15:55:47;30.98;;;15.57;;
12597;SDS011;6364;53.590;9.956;2023-02-08T15:58:38;36.40;;;15.57;;
12597;SDS011;6364;53.590;9.956;2023-02-08T16:01:06;33.70;;;16.38;;
12597;SDS011;6364;53.590;9.956;2023-02-08T16:03:31;35.03;;;17.23;;
12597;SDS011;6364;53.590;9.956;2023-02-08T16:06:02;33.92;;;16.05;;
12597;SDS011;6364;53.590;9.956;2023-02-08T16:08:30;30.30;;;15.20;;
12597;SDS011;6364;53.590;9.956;2023-02-08T16:11:44;31.60;;;15.50;;
12597;SDS011;6364;53.590;9.956;2023-02-08T16:13:47;31.90;;;14.30;;
12597;SDS011;6364;53.590;9.956;2023-02-08T16:16:25;33.22;;;15.55;;
12597;SDS011;6364;53.590;9.956;2023-02-08T16:19:02;32.40;;;15.55;;
12597;SDS011;6364;53.590;9.956;2023-02-08T16:21:43;32.83;;;16.08;;
12597;SDS011;6364;53.590;9.956;2023-02-08T16:29:06;32.63;;;14.88;;
12597;SDS011;6364;53.590;9.956;2023-02-08T16:31:43;32.53;;;14.05;;
12597;SDS011;6364;53.590;9.956;2023-02-08T16:34:14;30.83;;;14.23;;
12597;SDS011;6364;53.590;9.956;2023-02-08T16:36:42;33.58;;;13.98;;
12597;SDS011;6364;53.590;9.956;2023-02-08T16:44:26;31.55;;;14.27;;
12597;SDS011;6364;53.590;9.956;2023-02-08T16:46:54;29.33;;;14.40;;
12597;SDS011;6364;53.590;9.956;2023-02-08T16:49:19;32.63;;;14.30;;
12597;SDS011;6364;53.590;9.956;2023-02-08T16:51:45;35.55;;;14.70;;
12597;SDS011;6364;53.590;9.956;2023-02-08T16:54:14;28.40;;;13.48;;
12597;SDS011;6364;53.590;9.956;2023-02-08T16:56:42;32.05;;;14.52;;
12597;SDS011;6364;53.590;9.956;2023-02-08T16:59:10;30.33;;;13.90;;
12597;SDS011;6364;53.590;9.956;2023-02-08T17:01:36;34.40;;;15.60;;
12597;SDS011;6364;53.590;9.956;2023-02-08T17:04:02;29.77;;;15.15;;
12597;SDS011;6364;53.590;9.956;2023-02-08T17:06:29;31.92;;;14.95;;
12597;SDS011;6364;53.590;9.956;2023-02-08T17:08:56;37.72;;;17.45;;
12597;SDS011;6364;53.590;9.956;2023-02-08T17:11:22;32.40;;;16.48;;
12597;SDS011;6364;53.590;9.956;2023-02-08T17:13:47;32.00;;;15.23;;
12597;SDS011;6364;53.590;9.956;2023-02-08T17:16:20;33.58;;;15.82;;
12597;SDS011;6364;53.590;9.956;2023-02-08T17:18:47;33.58;;;16.42;;
12597;SDS011;6364;53.590;9.956;2023-02-08T17:21:13;35.08;;;16.85;;